Weather at Parque Central Heliport

Public forecast

Using degrees Celsius for public forecast. Weather courtesy of forecast.io.

Closest aviation weather report (METAR) to Parque Central Heliport

Closest report is Simón Bolívar International Airport, 8.0 nm (14.9 km) NW.

2023/02/01 06:00 (retrieved 26 minutes ago)

SVMI 010600Z 00000KT 9999 SCT016 25/19 Q1014

Closest aviation forecast (TAF) to Parque Central Heliport

Closest forecast is Simón Bolívar International Airport, 8.0 nm (14.9 km) NW.

2023/02/01 06:04 (retrieved 22 minutes ago)

TAF SVMI 010400Z 0106/0206 00000KT 9999 SCT016 TX32/0118Z TN21/0207Z BECMG 0108/0110 00000KT 9999 SCT013 FEW016